| time (UTC) | temp C | wind direction | speed KPH | gust KPH | rain 1hr cm | rain 24hr cm | rain mn cm | humidity % | barometer mb |
| 20260906052014 | 25 | 79 | 3.2 | 9.7 | 0.00 | 0.69 | 0.00 | 1 | 1014.9 |
| 20260906051013 | 25 | 74 | 3.2 | 14.5 | 0.00 | 0.69 | 0.00 | 1 | 1013.9 |
| 20260906050013 | 24 | 11 | 3.2 | 16.1 | 0.00 | 0.69 | 0.69 | 1 | 1013.9 |
| 20260906044941 | 23 | 61 | 6.4 | 9.7 | 0.00 | 0.69 | 0.69 | 1 | 1013.5 |
| 20260906043940 | 23 | 237 | 3.2 | 11.3 | 0.00 | 0.69 | 0.69 | 1 | 1013.5 |
| 20260906042908 | 23 | 265 | 1.6 | 12.9 | 0.00 | 0.69 | 0.69 | 1 | 1013.9 |
| 20260906041907 | 23 | 171 | 1.6 | 3.2 | 0.00 | 0.69 | 0.69 | 1 | 1013.9 |
| 20260906040907 | 23 | 134 | 1.6 | 1.6 | 0.00 | 0.69 | 0.69 | 1 | 1014.2 |
| 20260906035906 | 23 | 134 | 0.0 | 1.6 | 0.00 | 0.69 | 0.69 | 1 | 1013.9 |
| 20260906034905 | 23 | 134 | 1.6 | 1.6 | 0.00 | 0.69 | 0.69 | 1 | 1013.9 |
| 20260906033904 | 23 | 134 | 0.0 | 1.6 | 0.00 | 0.69 | 0.69 | 1 | 1014.2 |
| 20260906032904 | 23 | 131 | 1.6 | 1.6 | 0.00 | 0.69 | 0.69 | 1 | 1013.9 |
| 20260906031903 | 23 | 131 | 0.0 | 1.6 | 0.00 | 0.69 | 0.69 | 1 | 1014.2 |
| 20260906030902 | 23 | 131 | 1.6 | 1.6 | 0.00 | 0.69 | 0.69 | 1 | 1013.9 |
| 20260906025902 | 23 | 131 | 0.0 | 1.6 | 0.00 | 0.69 | 0.69 | 1 | 1013.9 |
| 20260906024900 | 23 | 131 | 0.0 | 1.6 | 0.00 | 0.69 | 0.69 | 1 | 1013.5 |
| 20260906023900 | 23 | 131 | 1.6 | 3.2 | 0.00 | 0.69 | 0.69 | 1 | 1013.9 |
| 20260906022859 | 23 | 131 | 1.6 | 3.2 | 0.00 | 0.69 | 0.69 | 1 | 1013.5 |
| 20260906021858 | 23 | 98 | 1.6 | 4.8 | 0.00 | 0.69 | 0.69 | 1 | 1013.2 |
| 20260906020858 | 23 | 77 | 3.2 | 4.8 | 0.00 | 0.69 | 0.69 | 1 | 1013.2 |
| 20260906015857 | 23 | 78 | 0.0 | 1.6 | 0.00 | 0.69 | 0.69 | 1 | 1012.5 |
| 20260906014856 | 23 | 78 | 0.0 | 1.6 | 0.00 | 0.69 | 0.69 | 1 | 1012.5 |
| 20260906013824 | 23 | 76 | 0.0 | 1.6 | 0.00 | 0.69 | 0.69 | 1 | 1012.5 |
| 20260906012824 | 23 | 77 | 0.0 | 1.6 | 0.00 | 0.69 | 0.69 | 1 | 1012.5 |
| 20260906011823 | 23 | 77 | 0.0 | 1.6 | 0.00 | 0.69 | 0.69 | 1 | 1012.5 |
| 20260906010751 | 23 | 76 | 0.0 | 1.6 | 0.00 | 0.69 | 0.69 | 1 | 1012.9 |
| 20260906005750 | 23 | 77 | 0.0 | 1.6 | 0.00 | 0.69 | 0.69 | 1 | 1012.9 |
| 20260906004749 | 23 | 77 | 0.0 | 8.0 | 0.00 | 0.69 | 0.69 | 1 | 1012.9 |
| 20260906003717 | 24 | 77 | 1.6 | 8.0 | 0.00 | 0.69 | 0.69 | 1 | 1012.5 |
| 20260906002645 | 24 | 24 | 1.6 | 6.4 | 0.00 | 0.69 | 0.69 | 1 | 1012.5 |
| 20260906001645 | 25 | 179 | 1.6 | 4.8 | 0.23 | 0.69 | 0.69 | 1 | 1012.5 |
| 20260906000644 | 25 | 352 | 0.0 | 3.2 | 0.58 | 0.69 | 0.69 | 1 | 1012.5 |
| 20260905235643 | 25 | 328 | 1.6 | 3.2 | 0.66 | 0.69 | 0.69 | 1 | 1012.5 |
| 20260905234642 | 25 | 280 | 1.6 | 8.0 | 0.69 | 0.69 | 0.69 | 1 | 1012.9 |
| 20260905233641 | 25 | 145 | 1.6 | 20.9 | 0.69 | 0.69 | 0.69 | 1 | 1012.5 |
| 20260905232641 | 26 | 175 | 4.8 | 20.9 | 0.69 | 0.69 | 0.69 | 1 | 1012.5 |
| 20260905231640 | 27 | 162 | 3.2 | 14.5 | 0.43 | 0.43 | 0.43 | 1 | 1013.2 |
| 20260905230639 | 28 | 93 | 3.2 | 17.7 | 0.08 | 0.08 | 0.08 | 41 | 1013.2 |
| 20260905225639 | 30 | 52 | 9.7 | 19.3 | 0.03 | 0.03 | 0.03 | 57 | 1013.2 |
| 20260905224638 | 32 | 51 | 8.0 | 22.5 | 0.00 | 0.00 | 0.00 | 57 | 1012.9 |
| 20260905223637 | 35 | 97 | 11.3 | 25.7 | 0.00 | 0.00 | 0.00 | 52 | 1012.5 |
| 20260905222636 | 36 | 168 | 3.2 | 9.7 | 0.00 | 0.00 | 0.00 | 51 | 1011.9 |
| 20260905221635 | 37 | 159 | 3.2 | 6.4 | 0.00 | 0.00 | 0.00 | 49 | 1011.9 |
| 20260905220603 | 36 | 56 | 3.2 | 8.0 | 0.00 | 0.00 | 0.00 | 46 | 1011.9 |
| 20260905215602 | 36 | 54 | 4.8 | 9.7 | 0.00 | 0.00 | 0.00 | 46 | 1011.9 |
| 20260905214602 | 36 | 339 | 3.2 | 8.0 | 0.00 | 0.00 | 0.00 | 46 | 1011.9 |
| 20260905213530 | 36 | 115 | 3.2 | 8.0 | 0.00 | 0.00 | 0.00 | 49 | 1012.2 |
| 20260905212529 | 36 | 69 | 4.8 | 8.0 | 0.00 | 0.00 | 0.00 | 50 | 1012.2 |
| 20260905211529 | 36 | 64 | 4.8 | 12.9 | 0.00 | 0.00 | 0.00 | 48 | 1012.2 |
| 20260905210528 | 37 | 21 | 6.4 | 12.9 | 0.00 | 0.00 | 0.00 | 46 | 1011.9 |
| 20260905205527 | 37 | 17 | 6.4 | 14.5 | 0.00 | 0.00 | 0.00 | 46 | 1012.2 |
| 20260905204527 | 37 | 282 | 3.2 | 16.1 | 0.00 | 0.28 | 0.00 | 47 | 1012.2 |
| 20260905203526 | 37 | 334 | 3.2 | 14.5 | 0.00 | 1.19 | 0.00 | 47 | 1012.2 |
| 20260905202525 | 37 | 321 | 3.2 | 16.1 | 0.00 | 1.22 | 0.00 | 46 | 1012.5 |
| 20260905201524 | 36 | 296 | 1.6 | 11.3 | 0.00 | 1.22 | 0.00 | 47 | 1012.5 |
| 20260905200524 | 36 | 21 | 1.6 | 14.5 | 0.00 | 1.22 | 0.00 | 50 | 1012.9 |
| 20260905195523 | 36 | 65 | 6.4 | 16.1 | 0.00 | 1.22 | 0.00 | 50 | 1012.9 |
| 20260905194522 | 36 | 53 | 6.4 | 17.7 | 0.00 | 1.22 | 0.00 | 49 | 1013.2 |
| 20260905193521 | 37 | 75 | 4.8 | 14.5 | 0.00 | 1.22 | 0.00 | 45 | 1013.2 |
| 20260905192520 | 36 | 336 | 1.6 | 14.5 | 0.00 | 1.22 | 0.00 | 48 | 1013.5 |
| 20260905191520 | 36 | 325 | 4.8 | 12.9 | 0.00 | 1.22 | 0.00 | 49 | 1013.5 |
| 20260905190519 | 36 | 14 | 6.4 | 14.5 | 0.00 | 1.22 | 0.00 | 51 | 1013.5 |
| 20260905185518 | 35 | 62 | 4.8 | 9.7 | 0.00 | 1.22 | 0.00 | 52 | 1013.9 |
| 20260905184517 | 35 | 80 | 3.2 | 14.5 | 0.00 | 1.22 | 0.00 | 52 | 1013.9 |
| 20260905183517 | 36 | 62 | 9.7 | 16.1 | 0.00 | 1.22 | 0.00 | 53 | 1014.2 |
| 20260905182516 | 36 | 354 | 1.6 | 9.7 | 0.00 | 1.22 | 0.00 | 53 | 1014.2 |
| 20260905181444 | 35 | 40 | 4.8 | 11.3 | 0.00 | 1.22 | 0.00 | 52 | 1014.6 |
| 20260905180443 | 35 | 55 | 6.4 | 12.9 | 0.00 | 1.22 | 0.00 | 55 | 1014.6 |
| 20260905175443 | 35 | 103 | 3.2 | 9.7 | 0.00 | 1.22 | 0.00 | 55 | 1014.6 |
| 20260905174340 | 35 | 63 | 4.8 | 12.9 | 0.00 | 1.22 | 0.00 | 56 | 1014.9 |
| 20260905173339 | 35 | 27 | 8.0 | 14.5 | 0.00 | 1.22 | 0.00 | 56 | 1014.9 |
| 20260905172338 | 34 | 85 | 4.8 | 12.9 | 0.00 | 1.22 | 0.00 | 56 | 1014.9 |
| 20260905171338 | 34 | 23 | 8.0 | 14.5 | 0.00 | 1.22 | 0.00 | 57 | 1015.2 |
| 20260905170337 | 34 | 73 | 9.7 | 16.1 | 0.00 | 1.22 | 0.00 | 57 | 1015.2 |
| 20260905165336 | 34 | 34 | 9.7 | 17.7 | 0.00 | 1.22 | 0.00 | 56 | 1015.2 |
| 20260905164335 | 34 | 78 | 4.8 | 16.1 | 0.00 | 1.22 | 0.00 | 57 | 1015.2 |
| 20260905163304 | 34 | 327 | 3.2 | 12.9 | 0.00 | 1.22 | 0.00 | 57 | 1015.6 |
| 20260905162305 | 33 | 339 | 1.6 | 11.3 | 0.00 | 1.22 | 0.00 | 57 | 1015.6 |
| 20260905161302 | 33 | 16 | 4.8 | 11.3 | 0.00 | 1.22 | 0.00 | 56 | 1015.9 |
| 20260905160301 | 32 | 284 | 4.8 | 9.7 | 0.00 | 1.22 | 0.00 | 55 | 1015.9 |
| 20260905155300 | 32 | 34 | 3.2 | 6.4 | 0.00 | 1.22 | 0.00 | 51 | 1015.9 |
| 20260905154300 | 31 | 330 | 3.2 | 6.4 | 0.00 | 1.22 | 0.00 | 46 | 1015.9 |
| 20260905153259 | 31 | 306 | 3.2 | 6.4 | 0.00 | 1.22 | 0.00 | 34 | 1015.9 |
| 20260905152258 | 30 | 35 | 1.6 | 6.4 | 0.00 | 1.22 | 0.00 | 26 | 1015.9 |
| 20260905151258 | 30 | 54 | 3.2 | 4.8 | 0.00 | 1.22 | 0.00 | 28 | 1015.9 |
| 20260905150257 | 30 | 23 | 0.0 | 6.4 | 0.00 | 1.22 | 0.00 | 20 | 1015.9 |
| 20260905145256 | 29 | 33 | 3.2 | 8.0 | 0.00 | 1.22 | 0.00 | 28 | 1016.3 |
| 20260905144255 | 29 | 43 | 6.4 | 9.7 | 0.00 | 1.22 | 0.00 | 4 | 1016.3 |
| 20260905143224 | 28 | 26 | 1.6 | 6.4 | 0.00 | 1.22 | 0.00 | 1 | 1016.3 |
| 20260905142223 | 27 | 42 | 4.8 | 6.4 | 0.00 | 1.22 | 0.00 | 1 | 1016.3 |
| 20260905141151 | 26 | 323 | 0.0 | 1.6 | 0.00 | 1.22 | 0.00 | 1 | 1016.3 |
| 20260905140150 | 25 | 322 | 1.6 | 1.6 | 0.00 | 1.22 | 0.00 | 1 | 1016.3 |
| 20260905135150 | 25 | 316 | 1.6 | 1.6 | 0.00 | 1.22 | 0.00 | 1 | 1016.6 |
| 20260905134149 | 24 | 316 | 1.6 | 1.6 | 0.00 | 1.22 | 0.00 | 1 | 1016.6 |
| 20260905133149 | 23 | 316 | 0.0 | 1.6 | 0.00 | 1.22 | 0.00 | 1 | 1016.6 |
| 20260905132147 | 23 | 316 | 0.0 | 3.2 | 0.00 | 1.22 | 0.00 | 1 | 1016.6 |
| 20260905131115 | 23 | 316 | 1.6 | 3.2 | 0.00 | 1.22 | 0.00 | 1 | 1016.6 |
| 20260905130114 | 22 | 309 | 1.6 | 1.6 | 0.00 | 1.22 | 0.00 | 1 | 1016.6 |
| 20260905125114 | 22 | 310 | 0.0 | 1.6 | 0.00 | 1.22 | 0.00 | 1 | 1016.6 |
| 20260905124113 | 22 | 311 | 0.0 | 1.6 | 0.00 | 1.22 | 0.00 | 1 | 1016.3 |
| 20260905123112 | 22 | 310 | 1.6 | 1.6 | 0.00 | 1.22 | 0.00 | 1 | 1016.3 |
| 20260905122111 | 22 | 310 | 0.0 | 1.6 | 0.00 | 1.22 | 0.00 | 1 | 1016.3 |
| 20260905121110 | 22 | 311 | 1.6 | 1.6 | 0.00 | 1.22 | 0.00 | 1 | 1016.3 |
| 20260905072939 | 22 | 309 | 0.0 | 0.0 | 0.00 | 1.22 | 0.00 | 1 | 1014.9 |
| 20260905071908 | 22 | 309 | 0.0 | 0.0 | 0.00 | 1.22 | 0.00 | 1 | 1014.9 |
| 20260905070907 | 22 | 309 | 0.0 | 0.0 | 0.00 | 1.22 | 0.00 | 1 | 1014.9 |
| 20260905065906 | 22 | 309 | 0.0 | 0.0 | 0.00 | 1.22 | 0.00 | 1 | 1014.9 |
| 20260905064905 | 22 | 309 | 0.0 | 0.0 | 0.00 | 1.22 | 0.00 | 1 | 1015.2 |
| 20260905063904 | 22 | 309 | 0.0 | 0.0 | 0.00 | 1.22 | 0.00 | 1 | 1015.2 |
| 20260905062904 | 22 | 311 | 0.0 | 0.0 | 0.00 | 1.22 | 0.00 | 1 | 1015.2 |
| 20260905061903 | 22 | 309 | 0.0 | 0.0 | 0.00 | 1.22 | 0.00 | 1 | 1015.2 |
| 20260905060902 | 22 | 309 | 0.0 | 0.0 | 0.00 | 1.22 | 0.00 | 1 | 1015.2 |
| 20260905055901 | 22 | 310 | 0.0 | 0.0 | 0.00 | 1.22 | 0.00 | 1 | 1015.2 |
| 20260905054901 | 22 | 309 | 0.0 | 0.0 | 0.00 | 1.22 | 0.00 | 1 | 1015.6 |
| 20260905053829 | 22 | 309 | 0.0 | 0.0 | 0.00 | 1.22 | 0.00 | 1 | 1015.6 |
| 20260905052829 | 22 | 309 | 0.0 | 0.0 | 0.00 | 1.22 | 0.00 | 1 | 1015.6 |